Oxnard Airport
KOXR : rendu visible

Aérodrome :











RETROUVEZ-NOUS SUR...

 
LOGIN :

S'inscrire | Disclaimer

   EN    FR    IT 

 









Légende :    VFR   VFR Marginal   IFR   IFR Intensif   IFR Très Intensif
Visi : 
Plafond : 
>= 8 km
>= 3000ft
5 à 8 km
1000 à 3000 ft
1500m à 5 km
500 à 1000 ft
800 à 1500m
200 à 500 ft
< 800m
< 200 ft
Symboles :   Orages  Brouillard  Fortes neiges  Fortes précipitations  Vent > 20 kt






- Altitude de l'aérodrome : 45 ft


KOXR - Oxnard

DERNIER METAR :
  • 180751Z AUTO 06006KT 10SM CLR 07/04 A3022 RMK AO2 SLP234 T00720039 401560061

METARs EXPIRÉS :
  • 180651Z AUTO 04007KT 10SM CLR 08/04 A3023 RMK AO2 SLP235 T00780044
  • 180551Z AUTO 05006KT 10SM CLR 08/04 A3023 RMK AO2 SLP236 T00780044 10139 20072 53004

TAF KOXR
Valide du 18 à 06h jusqu'au 19 à 06h UTC


180544Z 1806/1906 VRB03KT P6SM SCT250
FM181200 05008KT P6SM BKN200
FM182100 29010KT P6SM BKN200
FM190300 VRB03KT P6SM BKN200



MET'MAP, la Météo Aéronautique d'un coup d'oeil ! - Copyright ORBIFLY Décembre 2007 - Disclaimer

ORBIFLY MET'MAP TEAM :

Programmation & Développement : Alexandra Zaïnal
Sur une idée originale de : Baudouin d'Aumeries
Assistance à la programmation : Marc-Olivier Méhu
Soutien technique & logistique : Manuel Goepfert

Contact : metmap@orbifly.com




SOURCES & CREDITS :

   NOAA       Earth
Advisory